Time;durP1;ratioP1;P1;durP2;ratioP2;P2;SDS_P1;SDS_P2;PMS_P1;PMS_P2;Temp;Humidity;BMP_temperature;BMP_pressure;BME280_temperature;BME280_humidity;BME280_pressure;Samples;Min_cycle;Max_cycle;Signal;HPM_P1;HPM_P2
2023/10/29 00:01:17;;;;;;;52.90;24.73;;;;;;;12.14;52.26;100118.00;124525;1105;102096;-78
2023/10/29 00:03:46;;;;;;;50.50;24.07;;;;;;;12.07;51.94;100114.35;124640;1102;104249;-78
2023/10/29 00:06:15;;;;;;;52.43;25.30;;;;;;;12.03;52.19;100115.16;124636;1102;104232;-78
2023/10/29 00:08:43;;;;;;;55.07;25.73;;;;;;;12.01;52.01;100123.00;124629;1105;101892;-77
2023/10/29 00:11:13;;;;;;;50.27;24.60;;;;;;;12.00;52.37;100115.08;124663;1102;101943;-78
2023/10/29 00:13:43;;;;;;;52.60;25.95;;;;;;;11.97;52.56;100115.89;124676;1102;104188;-78
2023/10/29 00:16:11;;;;;;;50.50;24.00;;;;;;;11.97;52.32;100112.38;124749;1102;104067;-78
2023/10/29 00:18:40;;;;;;;51.10;24.93;;;;;;;11.99;52.54;100108.03;124634;1102;104185;-79
2023/10/29 00:21:09;;;;;;;45.93;23.03;;;;;;;11.99;52.58;100110.66;124769;1102;104271;-78
2023/10/29 00:23:38;;;;;;;48.60;22.43;;;;;;;11.98;52.56;100107.16;124675;1102;104255;-79
2023/10/29 00:26:06;;;;;;;47.67;22.87;;;;;;;11.98;52.60;100114.13;125574;1103;104206;-79
2023/10/29 00:28:35;;;;;;;43.63;21.20;;;;;;;11.96;52.87;100115.84;124703;1102;101922;-78
2023/10/29 00:31:04;;;;;;;43.30;20.67;;;;;;;11.96;52.74;100113.22;124652;1102;104179;-78
2023/10/29 00:33:33;;;;;;;50.10;22.45;;;;;;;11.96;53.04;100107.96;124614;1102;104306;-78
2023/10/29 00:36:02;;;;;;;42.93;21.10;;;;;;;11.94;52.65;100113.18;124674;1102;101958;-78
2023/10/29 00:38:30;;;;;;;48.37;23.33;;;;;;;11.93;52.96;100121.91;124540;1102;102142;-78
2023/10/29 00:40:59;;;;;;;46.73;22.33;;;;;;;11.92;52.92;100114.89;124632;1102;104192;-79
2023/10/29 00:43:27;;;;;;;50.43;23.70;;;;;;;11.90;52.93;100113.91;124637;1102;101839;-80
2023/10/29 00:45:57;;;;;;;49.63;23.80;;;;;;;11.89;52.92;100114.79;124507;1102;101955;-79
2023/10/29 00:48:25;;;;;;;45.70;22.67;;;;;;;11.89;53.09;100109.53;124671;1102;101930;-79
2023/10/29 00:50:54;;;;;;;50.73;21.77;;;;;;;11.84;53.39;100104.16;124646;1102;102070;-79
2023/10/29 00:53:24;;;;;;;42.67;22.00;;;;;;;11.81;53.20;100114.60;124666;1102;104205;-79
2023/10/29 00:55:53;;;;;;;43.10;21.63;;;;;;;11.78;53.13;100109.27;124622;1102;104259;-79
2023/10/29 00:58:25;;;;;;;42.20;21.00;;;;;;;11.75;53.22;100114.45;124700;1102;102329;-78
2023/10/29 01:00:54;;;;;;;46.57;21.67;;;;;;;11.70;53.16;100116.05;124911;1102;104303;-79
2023/10/29 01:03:22;;;;;;;43.53;21.70;;;;;;;11.66;53.45;100119.47;126075;1106;104118;-79
2023/10/29 01:05:51;;;;;;;46.23;24.60;;;;;;;11.65;53.42;100117.69;126179;1102;104188;-80
2023/10/29 01:08:21;;;;;;;56.33;25.10;;;;;;;11.59;53.76;100110.52;126329;1102;101686;-79
2023/10/29 01:10:51;;;;;;;48.73;23.57;;;;;;;11.58;53.54;100114.02;124808;1102;101945;-78
2023/10/29 01:13:20;;;;;;;51.53;25.70;;;;;;;11.54;53.76;100116.53;124669;1102;101935;-78
2023/10/29 01:15:48;;;;;;;53.90;26.80;;;;;;;11.49;53.77;100114.66;124644;1105;101901;-78
2023/10/29 01:18:29;;;;;;;52.60;25.60;;;;;;;11.47;54.10;100119.00;125639;1105;104124;-78
2023/10/29 01:21:01;;;;;;;48.45;24.40;;;;;;;11.44;53.90;100120.67;125772;1104;101852;-78
2023/10/29 01:23:30;;;;;;;51.43;25.80;;;;;;;11.40;54.06;100127.56;124629;1105;102309;-78
2023/10/29 01:25:59;;;;;;;51.77;25.70;;;;;;;11.33;54.02;100120.39;124618;1105;101996;-78
2023/10/29 01:28:28;;;;;;;52.37;24.83;;;;;;;11.31;54.13;100127.31;124598;1105;104226;-77
2023/10/29 01:30:56;;;;;;;50.40;25.53;;;;;;;11.30;54.46;100117.67;124669;1105;104114;-79
2023/10/29 01:33:26;;;;;;;54.80;25.87;;;;;;;11.32;54.04;100115.97;124635;1105;104226;-80
2023/10/29 01:35:55;;;;;;;54.37;25.93;;;;;;;11.33;54.09;100115.13;125082;1102;101836;-79
2023/10/29 01:38:23;;;;;;;53.10;25.93;;;;;;;11.31;54.34;100122.06;124594;1102;102112;-79
2023/10/29 01:40:52;;;;;;;49.47;24.30;;;;;;;11.23;54.61;100145.48;124683;1102;104239;-78
2023/10/29 01:43:21;;;;;;;52.17;25.23;;;;;;;11.13;54.48;100148.73;124612;1102;102373;-78
2023/10/29 01:45:49;;;;;;;53.23;25.97;;;;;;;11.05;54.89;100148.52;124624;1102;102141;-79
2023/10/29 01:48:19;;;;;;;53.30;25.10;;;;;;;11.03;54.62;100150.22;124621;1105;104220;-78
2023/10/29 01:50:50;;;;;;;48.10;24.75;;;;;;;10.96;54.43;100150.88;124665;1102;101961;-78
2023/10/29 01:53:19;;;;;;;46.90;24.63;;;;;;;10.89;55.30;100159.41;124575;1102;102169;-79
2023/10/29 01:55:48;;;;;;;49.37;23.70;;;;;;;10.88;54.86;100158.53;124674;1102;104233;-78
2023/10/29 01:58:16;;;;;;;50.80;24.43;;;;;;;10.87;54.98;100156.74;124520;1104;104310;-78
2023/10/29 02:00:45;;;;;;;52.77;24.37;;;;;;;10.87;55.53;100150.61;124629;1105;102239;-78
2023/10/29 02:03:13;;;;;;;49.53;23.67;;;;;;;10.87;55.31;100151.49;124690;1102;101944;-78
2023/10/29 02:05:42;;;;;;;44.60;22.23;;;;;;;10.89;55.34;100159.41;124603;1102;104207;-79
2023/10/29 02:08:11;;;;;;;50.30;24.00;;;;;;;10.89;55.62;100160.33;124643;1102;104211;-78
2023/10/29 02:10:40;;;;;;;48.63;24.87;;;;;;;10.88;55.52;100160.28;124591;1102;104309;-78
2023/10/29 02:13:09;;;;;;;50.70;24.27;;;;;;;10.88;55.85;100160.28;124667;1102;102592;-79
2023/10/29 02:15:37;;;;;;;48.03;23.27;;;;;;;10.89;55.74;100169.91;124722;1102;102370;-79
2023/10/29 02:18:06;;;;;;;50.53;24.30;;;;;;;10.90;55.76;100166.45;124725;1102;101986;-78
2023/10/29 02:20:35;;;;;;;52.33;23.83;;;;;;;10.90;55.76;100171.70;124660;1102;102329;-78
2023/10/29 02:23:04;;;;;;;55.53;24.77;;;;;;;10.87;55.98;100166.36;124618;1102;101859;-79
2023/10/29 02:25:33;;;;;;;53.47;25.17;;;;;;;10.87;55.99;100169.87;124645;1102;104258;-79
2023/10/29 02:28:02;;;;;;;44.87;22.60;;;;;;;10.84;55.93;100166.27;124627;1102;104208;-79
2023/10/29 02:30:30;;;;;;;53.57;25.13;;;;;;;10.81;56.39;100168.81;124582;1105;104188;-79
2023/10/29 02:32:59;;;;;;;51.40;24.90;;;;;;;10.80;56.21;100175.80;124663;1105;101849;-79
2023/10/29 02:35:27;;;;;;;50.03;24.03;;;;;;;10.79;56.24;100180.14;124549;1104;102100;-79
2023/10/29 02:37:56;;;;;;;48.73;24.30;;;;;;;10.78;56.13;100188.88;124636;1105;101907;-79
2023/10/29 02:40:25;;;;;;;54.40;24.37;;;;;;;10.79;56.25;100188.02;124585;1105;104321;-79
2023/10/29 02:42:53;;;;;;;50.03;23.80;;;;;;;10.79;56.33;100177.52;124625;1105;102034;-79
2023/10/29 02:45:22;;;;;;;46.70;23.47;;;;;;;10.79;56.51;100184.52;124933;1105;102052;-79
2023/10/29 02:47:53;;;;;;;52.70;25.03;;;;;;;10.77;56.73;100189.71;124609;1105;101909;-79
2023/10/29 02:50:22;;;;;;;48.90;24.13;;;;;;;10.75;56.68;100190.50;124678;1105;104185;-79
2023/10/29 02:52:50;;;;;;;48.73;23.93;;;;;;;10.73;57.05;100185.20;124776;1105;104226;-79
2023/10/29 02:55:19;;;;;;;54.67;25.17;;;;;;;10.70;56.43;100199.98;124538;1102;104192;-79
2023/10/29 02:57:48;;;;;;;44.63;23.30;;;;;;;10.67;56.71;100207.76;124654;1102;102086;-78
2023/10/29 03:00:18;;;;;;;48.90;24.23;;;;;;;10.54;56.58;100199.50;124637;1101;104134;-78
2023/10/29 03:02:47;;;;;;;46.60;22.97;;;;;;;10.52;56.93;100211.70;124585;1105;101929;-77
2023/10/29 03:05:15;;;;;;;48.63;23.30;;;;;;;10.35;56.83;100208.54;124512;1105;102121;-78
2023/10/29 03:07:44;;;;;;;49.57;24.43;;;;;;;10.20;56.65;100222.00;124616;1104;104351;-78
2023/10/29 03:10:13;;;;;;;52.30;26.75;;;;;;;10.03;56.89;100228.42;124590;1105;102166;-78
2023/10/29 03:12:41;;;;;;;51.47;24.70;;;;;;;9.85;57.48;100245.31;124625;1105;102067;-78
2023/10/29 03:15:10;;;;;;;52.67;24.87;;;;;;;9.80;56.95;100246.89;124446;1105;104188;-77
2023/10/29 03:17:39;;;;;;;53.90;25.40;;;;;;;9.85;57.33;100244.44;124647;1105;104121;-79
2023/10/29 03:20:11;;;;;;;50.57;23.93;;;;;;;9.88;57.04;100247.16;124546;1105;104197;-79
2023/10/29 03:22:40;;;;;;;54.90;24.30;;;;;;;9.83;57.40;100259.19;124653;1104;104316;-78
2023/10/29 03:25:10;;;;;;;54.07;24.97;;;;;;;9.87;57.21;100242.75;124568;1106;104433;-78
2023/10/29 03:27:38;;;;;;;53.63;26.00;;;;;;;9.97;57.33;100242.23;124539;1104;104286;-79
2023/10/29 03:30:09;;;;;;;51.17;24.60;;;;;;;9.99;57.17;100250.16;124467;1106;103725;-77
2023/10/29 03:32:38;;;;;;;50.60;24.83;;;;;;;9.94;57.29;100263.09;124534;1105;104201;-77
2023/10/29 03:35:07;;;;;;;48.00;23.67;;;;;;;9.88;57.84;100262.89;124554;1105;102767;-78
2023/10/29 03:37:36;;;;;;;57.33;25.33;;;;;;;9.82;57.54;100257.43;124572;1105;104210;-78
2023/10/29 03:40:08;;;;;;;52.97;24.87;;;;;;;9.81;57.79;100253.90;124664;1105;101980;-79
2023/10/29 03:42:37;;;;;;;52.43;24.67;;;;;;;9.85;57.75;100249.67;124546;1105;103079;-78
2023/10/29 03:45:08;;;;;;;49.23;23.80;;;;;;;9.74;57.49;100249.30;124588;1105;104261;-78
2023/10/29 03:47:36;;;;;;;52.33;23.97;;;;;;;9.62;57.54;100244.51;124741;1103;101795;-78
2023/10/29 03:50:08;;;;;;;51.23;24.03;;;;;;;9.59;58.18;100243.52;124631;1104;101820;-79
2023/10/29 03:52:37;;;;;;;50.40;23.57;;;;;;;9.54;57.65;100248.59;124643;1105;104261;-78
2023/10/29 03:55:06;;;;;;;52.83;25.53;;;;;;;9.51;57.91;100249.36;124612;1105;104194;-78
2023/10/29 03:57:35;;;;;;;53.43;23.97;;;;;;;9.56;57.92;100259.12;124591;1105;102109;-78
2023/10/29 04:00:06;;;;;;;48.33;23.13;;;;;;;9.59;58.01;100260.11;124581;1105;104325;-78
2023/10/29 04:02:40;;;;;;;50.50;24.33;;;;;;;9.62;58.69;100256.73;124459;1104;101974;-78
2023/10/29 04:05:09;;;;;;;49.87;25.17;;;;;;;9.69;58.24;100259.62;124541;1105;102054;-78
2023/10/29 04:07:38;;;;;;;51.87;24.17;;;;;;;9.74;58.76;100258.87;124661;1105;102131;-78
2023/10/29 04:10:09;;;;;;;52.47;24.93;;;;;;;9.79;58.51;100267.81;124582;1105;102003;-78
2023/10/29 04:12:39;;;;;;;51.83;24.47;;;;;;;9.84;58.94;100263.61;124595;1105;102229;-78
2023/10/29 04:15:11;;;;;;;51.67;24.07;;;;;;;9.87;58.25;100258.47;124486;1105;104236;-78
2023/10/29 04:17:40;;;;;;;49.80;23.80;;;;;;;9.86;58.94;100260.21;124663;1105;102049;-79
2023/10/29 04:20:10;;;;;;;50.37;24.87;;;;;;;9.88;58.92;100257.64;124508;1105;104300;-78
2023/10/29 04:22:41;;;;;;;51.80;26.10;;;;;;;9.89;58.84;100244.59;124591;1105;101816;-78
2023/10/29 04:25:10;;;;;;;48.47;24.40;;;;;;;9.94;58.25;100249.08;124614;1105;104264;-79
2023/10/29 04:27:38;;;;;;;49.10;25.30;;;;;;;9.94;58.76;100264.81;124503;1105;101928;-79
2023/10/29 04:30:09;;;;;;;53.03;25.23;;;;;;;9.91;58.78;100273.48;124578;1102;104333;-79
2023/10/29 04:32:38;;;;;;;53.33;23.73;;;;;;;9.92;58.71;100266.49;124656;1102;101953;-78
2023/10/29 04:35:08;;;;;;;53.43;25.47;;;;;;;9.90;58.24;100262.08;124639;1102;101961;-78
2023/10/29 04:37:37;;;;;;;50.93;24.80;;;;;;;9.85;58.11;100279.39;124699;1102;102048;-78
2023/10/29 04:40:09;;;;;;;56.40;25.57;;;;;;;9.81;58.37;100284.46;124664;1102;104361;-78
2023/10/29 04:42:38;;;;;;;52.30;24.40;;;;;;;9.64;58.39;100289.09;124643;1102;101871;-77
2023/10/29 04:45:11;;;;;;;51.53;24.20;;;;;;;9.64;58.40;100286.48;124546;1102;101997;-78
2023/10/29 04:47:39;;;;;;;50.80;24.83;;;;;;;9.66;58.45;100279.55;124455;1102;104230;-78
2023/10/29 04:50:09;;;;;;;49.53;24.87;;;;;;;9.70;58.92;100284.08;124599;1102;104233;-78
2023/10/29 04:52:38;;;;;;;51.53;23.90;;;;;;;9.75;58.56;100286.86;124537;1102;101942;-78
2023/10/29 04:55:08;;;;;;;53.53;24.67;;;;;;;9.69;59.25;100285.82;124558;1102;101922;-78
2023/10/29 04:57:37;;;;;;;48.43;24.77;;;;;;;9.67;58.62;100273.49;124666;1102;102105;-77
2023/10/29 05:00:09;;;;;;;55.53;25.97;;;;;;;9.72;58.76;100279.78;124526;1102;104338;-78
2023/10/29 05:02:37;;;;;;;49.70;23.70;;;;;;;9.76;58.73;100283.42;124609;1102;101826;-77
2023/10/29 05:05:10;;;;;;;54.40;26.80;;;;;;;9.76;59.44;100296.52;124587;1102;104265;-78
2023/10/29 05:07:40;;;;;;;53.60;24.63;;;;;;;9.79;59.52;100305.37;124539;1102;102386;-77
2023/10/29 05:10:10;;;;;;;51.13;24.10;;;;;;;9.81;58.96;100310.67;124565;1102;104095;-77
2023/10/29 05:12:38;;;;;;;56.27;24.20;;;;;;;9.82;59.25;100315.09;124602;1101;104195;-77
2023/10/29 05:15:12;;;;;;;50.33;23.33;;;;;;;9.83;59.64;100316.84;124515;1102;104198;-77
2023/10/29 05:17:41;;;;;;;;;;;;;;;9.79;59.02;100322.83;124633;1105;102370;-78
2023/10/29 05:20:13;;;;;;;51.20;24.97;;;;;;;9.80;59.70;100321.98;124753;1102;102077;-77
2023/10/29 05:22:42;;;;;;;56.77;25.93;;;;;;;9.79;59.59;100323.72;124685;1102;104230;-78
2023/10/29 05:25:11;;;;;;;52.03;24.77;;;;;;;9.84;59.81;100329.13;124654;1105;102115;-78
2023/10/29 05:27:39;;;;;;;53.53;27.57;;;;;;;9.81;59.69;100344.73;124723;1102;104088;-77
2023/10/29 05:30:10;;;;;;;56.30;26.37;;;;;;;9.78;59.64;100340.27;124622;1106;104195;-78
2023/10/29 05:32:38;;;;;;;55.80;26.00;;;;;;;9.86;59.88;100349.32;124689;1105;104238;-77
2023/10/29 05:35:09;;;;;;;53.77;26.17;;;;;;;9.98;59.42;100340.98;124697;1102;104360;-77
2023/10/29 05:37:37;;;;;;;55.03;25.83;;;;;;;10.14;59.59;100342.41;124689;1105;104233;-78
2023/10/29 05:40:09;;;;;;;48.93;24.63;;;;;;;10.29;59.89;100344.68;124641;1105;101852;-78
2023/10/29 05:42:38;;;;;;;54.37;25.30;;;;;;;10.43;59.98;100360.92;124691;1105;104284;-78
2023/10/29 05:45:08;;;;;;;49.27;25.50;;;;;;;10.57;59.59;100361.39;124726;1105;104182;-78
2023/10/29 05:47:36;;;;;;;59.93;26.13;;;;;;;10.65;59.64;100370.41;124666;1105;104316;-78
2023/10/29 05:50:07;;;;;;;49.80;24.67;;;;;;;10.73;60.10;100378.53;124565;1105;104408;-77
2023/10/29 05:52:35;;;;;;;55.60;25.50;;;;;;;10.75;59.64;100388.25;124690;1103;102753;-77
2023/10/29 05:55:06;;;;;;;53.47;26.20;;;;;;;10.67;60.25;100384.45;124661;1102;104192;-78
2023/10/29 05:57:34;;;;;;;53.77;26.10;;;;;;;10.63;60.46;100387.84;124717;1102;104220;-77
2023/10/29 06:00:04;;;;;;;52.60;26.77;;;;;;;10.60;60.37;100391.23;124672;1105;104177;-77
2023/10/29 06:02:40;;;;;;;49.47;25.57;;;;;;;10.56;60.93;100391.08;124527;1105;104226;-77
2023/10/29 06:05:09;;;;;;;57.03;26.23;;;;;;;10.54;60.75;100400.64;124591;1105;104316;-77
2023/10/29 06:07:42;;;;;;;57.10;26.60;;;;;;;10.51;60.66;100408.41;124600;1105;104319;-77
2023/10/29 06:10:13;;;;;;;57.70;28.33;;;;;;;10.44;60.75;100402.06;125875;1103;101817;-76
2023/10/29 06:12:42;;;;;;;55.03;26.93;;;;;;;10.39;60.47;100407.16;125919;1105;101936;-76
2023/10/29 06:15:12;;;;;;;55.03;26.93;;;;;;;10.39;60.69;100406.23;125972;1105;104389;-77
2023/10/29 06:17:42;;;;;;;63.10;28.73;;;;;;;10.42;60.96;100404.64;124722;1105;104232;-77
2023/10/29 06:20:16;;;;;;;59.43;28.67;;;;;;;10.50;60.81;100402.28;124665;1105;104184;-77
2023/10/29 06:22:45;;;;;;;56.87;29.10;;;;;;;10.59;61.16;100402.56;124656;1102;102063;-77
2023/10/29 06:25:14;;;;;;;56.70;28.00;;;;;;;10.68;61.08;100407.24;124534;1102;104341;-76
2023/10/29 06:27:43;;;;;;;66.33;30.57;;;;;;;10.75;60.96;100411.88;124576;1103;104240;-76
2023/10/29 06:30:16;;;;;;;65.43;31.00;;;;;;;10.81;60.95;100411.16;124584;1105;104208;-76
2023/10/29 06:32:46;;;;;;;73.00;31.60;;;;;;;10.86;60.97;100412.23;124540;1104;104235;-76
2023/10/29 06:35:14;;;;;;;67.87;31.93;;;;;;;10.90;60.86;100405.34;124560;1103;101842;-77
2023/10/29 06:37:43;;;;;;;63.70;31.53;;;;;;;10.96;61.30;100398.55;124415;1102;104251;-77
2023/10/29 06:40:12;;;;;;;72.57;34.03;;;;;;;11.09;60.95;100398.94;124436;1105;104217;-77
2023/10/29 06:42:42;;;;;;;66.77;31.80;;;;;;;11.23;60.79;100396.75;124739;1105;104242;-77
2023/10/29 06:45:11;;;;;;;62.80;30.40;;;;;;;11.33;60.90;100404.09;124665;1105;104316;-77
2023/10/29 06:47:40;;;;;;;66.27;30.93;;;;;;;11.36;60.77;100413.78;124599;1102;104313;-77
2023/10/29 06:50:10;;;;;;;69.40;33.20;;;;;;;11.36;60.93;100419.03;124531;1105;102367;-76
2023/10/29 06:52:38;;;;;;;66.83;32.13;;;;;;;11.35;60.86;100417.27;124603;1105;102204;-77
2023/10/29 06:55:09;;;;;;;67.00;33.80;;;;;;;11.36;60.63;100417.31;124540;1105;104220;-76
2023/10/29 06:57:37;;;;;;;71.87;31.50;;;;;;;11.40;61.08;100427.06;125031;1102;104340;-76
2023/10/29 07:00:08;;;;;;;64.40;32.90;;;;;;;11.46;60.99;100427.25;124671;1102;104211;-77
2023/10/29 07:02:37;;;;;;;64.73;31.50;;;;;;;11.54;61.03;100431.86;124628;1102;101932;-77
2023/10/29 07:05:07;;;;;;;64.63;30.93;;;;;;;11.64;61.11;100426.02;124430;1102;102093;-77
2023/10/29 07:07:36;;;;;;;71.15;32.90;;;;;;;11.74;61.00;100429.84;124538;1105;104245;-76
2023/10/29 07:10:05;;;;;;;68.57;33.77;;;;;;;11.80;61.02;100432.65;124443;1105;104207;-76
2023/10/29 07:12:34;;;;;;;63.03;31.60;;;;;;;11.85;60.93;100428.41;124641;1105;104265;-76
2023/10/29 07:15:04;;;;;;;65.60;32.73;;;;;;;11.92;60.91;100421.58;124608;1105;104294;-77
2023/10/29 07:17:32;;;;;;;67.13;31.40;;;;;;;12.00;60.82;100425.38;124442;1105;104188;-78
2023/10/29 07:20:01;;;;;;;70.57;31.90;;;;;;;12.09;60.89;100428.27;124499;1105;105462;-77
2023/10/29 07:22:30;;;;;;;61.73;31.63;;;;;;;12.22;60.83;100425.12;124593;1105;104211;-78
2023/10/29 07:24:58;;;;;;;61.93;31.03;;;;;;;12.38;60.76;100429.05;124647;1102;102032;-77
2023/10/29 07:27:27;;;;;;;60.50;29.47;;;;;;;12.54;60.70;100442.62;124617;1102;102038;-77
2023/10/29 07:29:56;;;;;;;64.60;29.93;;;;;;;12.67;60.68;100443.84;124488;1105;102555;-76
2023/10/29 07:32:24;;;;;;;61.00;29.53;;;;;;;12.80;60.91;100442.44;124627;1105;104127;-78
2023/10/29 07:34:53;;;;;;;57.83;30.70;;;;;;;12.95;60.83;100438.44;124619;1105;104198;-77
2023/10/29 07:37:21;;;;;;;59.37;29.83;;;;;;;13.11;60.17;100431.80;124597;1102;102015;-78
2023/10/29 07:39:50;;;;;;;62.00;29.43;;;;;;;13.20;60.12;100428.51;124612;1102;101909;-78
2023/10/29 07:42:19;;;;;;;53.67;28.30;;;;;;;13.25;60.75;100431.25;124586;1102;104188;-78
2023/10/29 07:44:48;;;;;;;49.53;26.73;;;;;;;13.34;60.28;100422.69;124588;1102;104189;-79
2023/10/29 07:47:17;;;;;;;60.83;29.57;;;;;;;13.42;60.13;100435.20;124679;1102;102220;-78
2023/10/29 07:49:48;;;;;;;54.07;26.80;;;;;;;13.54;60.49;100439.88;124593;1105;102356;-77
2023/10/29 07:52:16;;;;;;;54.70;27.07;;;;;;;13.62;59.72;100443.56;124462;1105;104255;-76
2023/10/29 07:54:45;;;;;;;53.80;27.80;;;;;;;13.68;59.72;100448.09;124554;1105;104201;-78
2023/10/29 07:57:14;;;;;;;54.07;26.77;;;;;;;13.75;59.59;100441.20;124621;1105;104249;-78
2023/10/29 07:59:42;;;;;;;53.85;27.80;;;;;;;13.79;60.00;100443.94;124604;1105;104322;-77
2023/10/29 08:02:11;;;;;;;53.93;26.63;;;;;;;13.89;59.18;100449.41;124619;1105;101849;-77
2023/10/29 08:04:39;;;;;;;59.17;28.27;;;;;;;14.00;58.78;100450.52;124509;1102;101946;-77
2023/10/29 08:07:08;;;;;;;57.67;26.73;;;;;;;14.11;59.03;100448.10;124461;1105;102099;-77
2023/10/29 08:09:36;;;;;;;55.23;27.37;;;;;;;14.21;59.34;100447.45;124558;1105;104306;-77
2023/10/29 08:12:06;;;;;;;53.87;26.33;;;;;;;14.34;59.26;100451.20;124543;1105;104224;-77
2023/10/29 08:14:35;;;;;;;54.67;26.63;;;;;;;14.49;58.82;100455.88;124594;1105;104208;-78
2023/10/29 08:17:04;;;;;;;56.13;26.87;;;;;;;14.69;58.87;100445.72;124621;1105;102368;-77
2023/10/29 08:19:32;;;;;;;52.83;26.00;;;;;;;14.86;59.01;100446.02;124557;1105;101837;-77
2023/10/29 08:22:01;;;;;;;50.17;25.43;;;;;;;15.03;59.07;100455.11;124477;1103;104323;-77
2023/10/29 08:24:30;;;;;;;51.40;24.37;;;;;;;15.17;59.02;100446.53;124439;1102;104309;-76
2023/10/29 08:26:59;;;;;;;53.63;24.80;;;;;;;15.31;58.35;100449.40;124472;1105;104185;-77
2023/10/29 08:29:28;;;;;;;45.93;23.47;;;;;;;15.44;58.38;100444.33;124540;1102;102410;-77
2023/10/29 08:31:57;;;;;;;41.85;22.40;;;;;;;15.57;57.97;100450.67;124554;1102;104332;-77
2023/10/29 08:34:25;;;;;;;45.47;22.87;;;;;;;15.71;57.79;100444.70;124517;1105;104227;-77
2023/10/29 08:36:54;;;;;;;43.83;21.60;;;;;;;15.87;57.89;100451.12;124342;1105;101929;-77
2023/10/29 08:39:23;;;;;;;40.13;20.60;;;;;;;16.03;57.03;100453.08;124531;1105;104210;-77
2023/10/29 08:41:52;;;;;;;44.67;22.60;;;;;;;16.22;57.26;100450.66;124532;1105;102001;-77
2023/10/29 08:44:20;;;;;;;45.07;23.17;;;;;;;16.38;56.56;100455.27;124223;1105;104354;-76
2023/10/29 08:46:49;;;;;;;44.17;21.90;;;;;;;16.51;56.78;100457.16;124210;1106;104341;-76
2023/10/29 08:49:18;;;;;;;41.40;20.23;;;;;;;16.65;56.83;100465.25;124320;1105;104206;-76
2023/10/29 08:51:46;;;;;;;40.47;20.50;;;;;;;16.78;56.52;100468.94;124430;1103;104230;-77
2023/10/29 08:54:15;;;;;;;40.47;21.83;;;;;;;16.91;56.53;100472.62;124469;1103;104181;-77
2023/10/29 08:56:43;;;;;;;36.90;18.57;;;;;;;17.01;55.77;100473.59;124498;1105;104194;-77
2023/10/29 08:59:12;;;;;;;37.07;17.63;;;;;;;17.09;55.84;100469.23;124525;1105;101964;-77
2023/10/29 09:01:41;;;;;;;33.80;15.90;;;;;;;17.19;55.47;100473.75;124365;1105;102405;-77
2023/10/29 09:04:11;;;;;;;38.57;17.60;;;;;;;17.30;55.15;100478.27;124445;1104;102202;-77
2023/10/29 09:06:40;;;;;;;34.00;17.40;;;;;;;17.38;55.13;100473.89;124559;1105;104218;-77
2023/10/29 09:09:11;;;;;;;35.30;17.40;;;;;;;17.49;54.56;100472.20;124500;1102;102412;-78
2023/10/29 09:11:43;;;;;;;34.43;16.07;;;;;;;17.59;54.46;100468.73;124603;1102;102172;-78
2023/10/29 09:14:13;;;;;;;34.80;15.47;;;;;;;17.75;54.27;100468.84;124566;1102;101810;-78
2023/10/29 09:16:41;;;;;;;32.43;14.97;;;;;;;17.86;54.28;100472.43;124637;1105;102051;-78
2023/10/29 09:19:10;;;;;;;27.20;13.47;;;;;;;17.95;54.03;100469.86;124539;1104;101950;-77
2023/10/29 09:21:39;;;;;;;29.67;13.30;;;;;;;18.07;53.65;100481.41;124628;1105;104655;-78
2023/10/29 09:24:08;;;;;;;28.33;13.73;;;;;;;18.17;53.40;100472.61;124379;1106;104223;-77
2023/10/29 09:26:38;;;;;;;26.47;11.57;;;;;;;18.24;52.99;100471.73;124715;1105;104245;-78
2023/10/29 09:29:07;;;;;;;25.67;10.57;;;;;;;18.33;52.46;100469.12;124571;1105;101871;-79
2023/10/29 09:31:36;;;;;;;23.17;10.80;;;;;;;18.40;52.65;100470.05;124553;1102;104201;-78
2023/10/29 09:34:08;;;;;;;24.47;10.13;;;;;;;18.49;52.59;100466.51;124624;1103;101808;-77
2023/10/29 09:36:37;;;;;;;22.80;8.97;;;;;;;18.60;51.77;100461.22;124524;1102;101935;-77
2023/10/29 09:39:06;;;;;;;22.20;9.30;;;;;;;18.73;52.15;100465.69;124435;1103;104248;-76
2023/10/29 09:41:37;;;;;;;20.97;8.00;;;;;;;18.85;51.99;100456.86;124251;1105;104225;-77
2023/10/29 09:44:10;;;;;;;18.87;8.17;;;;;;;18.96;51.37;100462.19;124236;1102;102017;-75
2023/10/29 09:46:40;;;;;;;21.87;8.68;;;;;;;19.07;51.85;100463.07;124210;1102;104184;-75
2023/10/29 09:49:08;;;;;;;18.13;6.97;;;;;;;19.16;51.72;100449.77;124223;1102;104178;-74
2023/10/29 09:51:40;;;;;;;19.03;7.13;;;;;;;19.21;50.43;100460.41;124312;1102;101807;-76
2023/10/29 09:54:09;;;;;;;20.03;8.00;;;;;;;19.27;50.71;100455.09;124342;1102;102428;-75
2023/10/29 09:56:39;;;;;;;20.43;7.53;;;;;;;19.35;50.51;100452.42;124319;1102;104226;-75
2023/10/29 09:59:08;;;;;;;16.93;7.17;;;;;;;19.46;50.28;100461.30;124214;1105;104063;-76
2023/10/29 10:01:37;;;;;;;20.87;7.30;;;;;;;19.54;49.77;100453.28;124177;1102;104242;-75
2023/10/29 10:04:06;;;;;;;14.40;6.53;;;;;;;19.58;50.13;100460.37;124239;1102;104222;-74
2023/10/29 10:06:36;;;;;;;15.27;5.40;;;;;;;19.63;50.01;100455.05;124349;1102;101824;-75
2023/10/29 10:09:06;;;;;;;16.47;5.87;;;;;;;19.70;49.56;100451.49;124355;1102;104194;-76
2023/10/29 10:11:34;;;;;;;12.47;5.20;;;;;;;19.77;49.08;100452.39;124244;1105;104070;-76
2023/10/29 10:14:03;;;;;;;11.30;4.40;;;;;;;19.81;49.44;100456.83;124241;1105;104265;-75
2023/10/29 10:16:32;;;;;;;11.07;4.87;;;;;;;19.86;48.45;100452.36;124162;1105;102332;-75
2023/10/29 10:19:01;;;;;;;9.70;4.73;;;;;;;19.90;48.26;100451.47;124228;1105;101823;-76
2023/10/29 10:21:43;;;;;;;10.87;4.73;;;;;;;19.96;48.14;100453.20;124313;1105;103634;-76
2023/10/29 10:24:12;;;;;;;11.37;4.20;;;;;;;20.01;48.54;100446.11;124266;1105;104360;-76
2023/10/29 10:26:40;;;;;;;8.90;4.43;;;;;;;20.02;48.00;100443.41;124291;1104;104192;-75
2023/10/29 10:29:11;;;;;;;13.17;4.17;;;;;;;20.06;48.11;100453.17;124252;1105;104195;-76
2023/10/29 10:31:40;;;;;;;9.57;4.50;;;;;;;20.11;47.81;100440.70;124265;1105;104313;-76
2023/10/29 10:34:13;;;;;;;10.05;4.20;;;;;;;20.14;48.28;100444.27;124367;1105;117805;-76
2023/10/29 10:36:42;;;;;;;8.78;3.90;;;;;;;20.18;47.91;100444.25;124128;1105;101912;-75
2023/10/29 10:39:11;;;;;;;7.03;3.10;;;;;;;20.19;47.50;100453.12;124127;1104;104172;-75
2023/10/29 10:41:42;;;;;;;5.43;2.87;;;;;;;20.21;47.57;100448.66;124296;1105;102280;-76
2023/10/29 10:44:13;;;;;;;5.03;2.80;;;;;;;20.24;47.20;100444.22;124374;1102;104212;-77
2023/10/29 10:46:49;;;;;;;5.77;2.83;;;;;;;20.28;46.84;100453.08;124284;1102;101916;-76
2023/10/29 10:49:19;;;;;;;4.43;2.80;;;;;;;20.28;46.23;100447.75;124305;1102;104251;-75
2023/10/29 10:51:54;;;;;;;7.83;2.90;;;;;;;20.30;46.01;100448.61;124391;1105;101971;-76
2023/10/29 10:54:24;;;;;;;5.93;2.73;;;;;;;20.31;45.69;100453.06;124286;1104;113099;-75
2023/10/29 10:56:53;;;;;;;5.17;2.47;;;;;;;20.31;45.94;100450.39;124639;1106;102373;-75
2023/10/29 10:59:23;;;;;;;5.33;2.90;;;;;;;20.33;45.42;100453.05;124275;1104;104370;-75
2023/10/29 11:01:52;;;;;;;4.43;2.73;;;;;;;20.32;45.62;100449.52;124296;1103;101955;-75
2023/10/29 11:04:23;;;;;;;6.20;3.00;;;;;;;20.34;44.88;100453.05;124273;1105;104182;-75
2023/10/29 11:06:53;;;;;;;6.50;2.70;;;;;;;20.36;45.28;100445.92;124258;1102;102054;-76